Eglin Air Force Base, FL

12:17 AM CDT on July 27, 2016 (GMT -0500)
John King 2nd edition | | Change Station

Elev 138 ft 30.72 °N, 86.55 °W | Updated 6 minutes ago

Light Rain
Light Rain
74.5 °F
Feels Like 74 °F
N
0.0
Wind Variable Wind from East

Today
High -- | Low -- °F
--% Chance of Precip.
Yesterday
High -- | Low -- °F
Precip. -- in
Pressure 30.06 in
Visibility 10.0 miles
Clouds Few 2300 ft
Heat Index 74 °F
Dew Point 71 °F
Humidity 88%
Rainfall 0.00 in
Snow Depth Not available.
6:01 AM 7:43 PM
Waning Gibbous, 47% visible
METAR KCEW 270453Z AUTO 00000KT 10SM -RA FEW023 24/23 A3007 RMK AO2 RAB46 SLP179 P0000 T02440228
Pressure 30.06 in
Visibility 10.0 miles
Clouds Few 2300 ft
Heat Index 74 °F
Dew Point 71 °F
Humidity 88%
Rainfall 0.00 in
Snow Depth Not available.
6:01 AM 7:43 PM
Waning Gibbous, 47% visible
METAR KCEW 270453Z AUTO 00000KT 10SM -RA FEW023 24/23 A3007 RMK AO2 RAB46 SLP179 P0000 T02440228

10-Day Weather Forecast

Almanac

Astronomy

Jul. 27, 2016 Rise Set
Actual Time
Civil Twilight
Nautical Twilight
Astronomical Twilight
Moon
Length of Visible Light
Length of Day
Tomorrow will be .
, % of the Moon is Illuminated

Today's Extremes

State Highs State Lows

Community

WunderPhotos

Upload Photos

1,927,814 photos uploaded!

WunderBlog® & News

Nearby

Air Quality

  Air Quality AQ Index Pollutant
Not available.

Snow Depth

Station Depth Elevation

Earthquake Activity

City Distance Mag. Time & Date
Minimum magnitude displayed is 2.5.

Coastal Water Temperatures

Place Temperature

Stations

Nearby Weather Stations

Station Location Temp. Windchill Dew Point Humidity Wind Precip. Elev Updated Type
                   

Watches & Warnings

There are currently no watches in effect.